Time;durP1;ratioP1;P1;durP2;ratioP2;P2;SDS_P1;SDS_P2;PMS_P1;PMS_P2;Temp;Humidity;BMP_temperature;BMP_pressure;BME280_temperature;BME280_humidity;BME280_pressure;Samples;Min_cycle;Max_cycle;Signal;HPM_P1;HPM_P2
2023/05/26 00:02:50;;;;;;;12.80;9.50;;;;;;;16.84;100.00;100582.47;5546929;32;33816;-68
2023/05/26 00:05:58;;;;;;;15.50;9.30;;;;;;;16.81;100.00;100588.22;5547232;32;33917;-69
2023/05/26 00:09:05;;;;;;;17.25;9.52;;;;;;;16.70;100.00;100589.63;5546332;32;34065;-68
2023/05/26 00:12:12;;;;;;;13.95;9.27;;;;;;;16.69;100.00;100587.16;5545953;32;34467;-68
2023/05/26 00:15:21;;;;;;;12.37;9.13;;;;;;;16.67;100.00;100599.91;5546791;32;33828;-68
2023/05/26 00:18:27;;;;;;;12.82;9.38;;;;;;;16.74;100.00;100596.25;5546684;32;34795;-69
2023/05/26 00:21:38;;;;;;;15.30;10.20;;;;;;;16.74;100.00;100590.06;5546623;32;34059;-68
2023/05/26 00:24:47;;;;;;;13.95;9.95;;;;;;;16.70;100.00;100584.25;5545653;32;34075;-68
2023/05/26 00:27:55;;;;;;;12.90;10.63;;;;;;;16.66;100.00;100591.06;5546433;32;34747;-68
2023/05/26 00:31:02;;;;;;;17.33;10.98;;;;;;;16.67;100.00;100587.34;5545612;32;33938;-69
2023/05/26 00:34:08;;;;;;;16.12;10.90;;;;;;;16.64;100.00;100590.44;5546374;32;33987;-68
2023/05/26 00:37:19;;;;;;;17.77;10.88;;;;;;;16.52;100.00;100587.50;5546338;32;33817;-69
2023/05/26 00:40:24;;;;;;;18.17;11.82;;;;;;;16.50;100.00;100594.09;5545447;32;34084;-68
2023/05/26 00:43:31;;;;;;;16.85;11.32;;;;;;;16.58;100.00;100591.25;5546315;32;33680;-68
2023/05/26 00:46:39;;;;;;;14.93;10.65;;;;;;;16.55;100.00;100588.12;5548949;32;33315;-68
2023/05/26 00:49:45;;;;;;;15.90;11.23;;;;;;;16.49;100.00;100587.06;5548899;32;34436;-69
2023/05/26 00:52:53;;;;;;;15.30;11.18;;;;;;;16.42;100.00;100578.19;5549037;32;34131;-68
2023/05/26 00:56:02;;;;;;;17.08;11.27;;;;;;;16.40;100.00;100582.94;5548636;32;34063;-69
2023/05/26 00:59:10;;;;;;;17.15;11.77;;;;;;;16.30;100.00;100582.47;5548757;32;34729;-68
2023/05/26 01:02:20;;;;;;;15.20;11.25;;;;;;;16.30;100.00;100582.47;5548709;32;34977;-68
2023/05/26 01:05:27;;;;;;;17.00;11.70;;;;;;;16.17;100.00;100577.88;5548766;32;33844;-68
2023/05/26 01:08:37;;;;;;;17.98;12.07;;;;;;;16.09;100.00;100581.56;5548716;32;35135;-68
2023/05/26 01:12:07;;;;;;;17.55;12.60;;;;;;;16.06;100.00;100581.12;5547929;32;33888;-68
2023/05/26 01:15:23;;;;;;;19.77;12.27;;;;;;;15.98;100.00;100587.47;5548783;32;34020;-69
2023/05/26 01:18:40;;;;;;;19.40;12.25;;;;;;;15.91;100.00;100578.59;5548989;32;34667;-69
2023/05/26 01:21:50;;;;;;;19.27;12.02;;;;;;;15.83;100.00;100578.72;5547824;32;34166;-69
2023/05/26 01:25:31;;;;;;;16.92;12.77;;;;;;;15.75;100.00;100575.38;5547797;32;34678;-70
2023/05/26 01:28:43;;;;;;;16.15;12.32;;;;;;;15.72;100.00;100581.12;5548634;32;34090;-69
2023/05/26 01:31:48;;;;;;;;;;;;;;;15.71;100.00;100577.62;5548812;32;34772;-68
2023/05/26 01:34:56;;;;;;;21.10;12.40;;;;;;;15.66;100.00;100577.41;5548561;32;35063;-68
2023/05/26 01:38:04;;;;;;;17.30;11.85;;;;;;;15.75;100.00;100568.19;5547711;32;34014;-69
2023/05/26 01:41:19;;;;;;;15.70;12.05;;;;;;;15.79;100.00;100577.47;5548819;32;34568;-68
2023/05/26 01:44:30;;;;;;;15.73;12.07;;;;;;;15.71;100.00;100563.44;5548300;32;34104;-68
2023/05/26 01:47:41;;;;;;;19.92;11.45;;;;;;;15.70;100.00;100562.59;5548377;32;34443;-69
2023/05/26 01:50:57;;;;;;;16.60;11.83;;;;;;;15.71;100.00;100568.78;5548536;32;34757;-68
2023/05/26 01:54:07;;;;;;;16.77;11.55;;;;;;;15.73;100.00;100566.75;5547272;32;34026;-69
2023/05/26 01:57:15;;;;;;;16.70;12.05;;;;;;;15.76;100.00;100567.16;5547983;32;33849;-69
2023/05/26 02:00:27;;;;;;;16.65;11.27;;;;;;;15.71;100.00;100563.44;5548404;32;33840;-68
2023/05/26 02:03:33;;;;;;;14.63;11.93;;;;;;;15.68;100.00;100564.66;5548289;32;34077;-68
2023/05/26 02:06:40;;;;;;;20.65;11.88;;;;;;;15.69;100.00;100565.47;5548239;32;34093;-68
2023/05/26 02:09:51;;;;;;;16.35;11.12;;;;;;;15.65;100.00;100559.69;5548261;32;34353;-69
2023/05/26 02:12:59;;;;;;;12.95;10.82;;;;;;;15.58;100.00;100567.69;5547380;32;34510;-68
2023/05/26 02:16:05;;;;;;;15.07;11.85;;;;;;;15.59;100.00;100563.97;5548221;32;34574;-68
2023/05/26 02:19:13;;;;;;;15.45;11.50;;;;;;;15.55;100.00;100573.41;5548203;32;34101;-68
2023/05/26 02:22:18;;;;;;;16.52;11.35;;;;;;;15.52;100.00;100572.97;5548365;32;34810;-67
2023/05/26 02:25:23;;;;;;;16.55;11.35;;;;;;;15.50;100.00;100567.78;5548514;32;34537;-68
2023/05/26 02:28:30;;;;;;;16.83;11.63;;;;;;;15.51;100.00;100563.31;5547288;32;33875;-68
2023/05/26 02:31:39;;;;;;;18.62;12.35;;;;;;;15.47;100.00;100570.84;5548178;32;34077;-68
2023/05/26 02:34:47;;;;;;;15.00;12.02;;;;;;;15.48;100.00;100577.88;5548099;32;33900;-68
2023/05/26 02:37:56;;;;;;;18.75;11.95;;;;;;;15.46;100.00;100574.53;5547980;32;34810;-68
2023/05/26 02:41:05;;;;;;;17.33;11.65;;;;;;;15.38;100.00;100576.53;5548038;32;34076;-68
2023/05/26 02:44:13;;;;;;;20.42;12.55;;;;;;;15.39;100.00;100579.03;5547897;32;33883;-69
2023/05/26 02:47:22;;;;;;;15.75;11.63;;;;;;;15.33;100.00;100569.13;5547064;32;34821;-69
2023/05/26 02:50:31;;;;;;;14.43;11.15;;;;;;;15.34;100.00;100565.41;5547953;32;33280;-67
2023/05/26 02:53:38;;;;;;;14.70;11.15;;;;;;;15.41;100.00;100566.28;5546495;32;34179;-69
2023/05/26 02:56:44;;;;;;;16.95;11.45;;;;;;;15.39;100.00;100567.50;5543332;32;33841;-68
2023/05/26 02:59:53;;;;;;;20.23;11.77;;;;;;;15.28;100.00;100563.50;5547892;32;33852;-69
2023/05/26 03:03:01;;;;;;;17.75;12.18;;;;;;;15.33;100.00;100569.13;5547706;32;33921;-68
2023/05/26 03:06:12;;;;;;;;;;;;;;;15.27;100.00;100569.88;5546528;32;34335;-69
2023/05/26 03:09:17;;;;;;;23.42;12.75;;;;;;;15.27;100.00;100575.22;5547617;32;34279;-69
2023/05/26 03:12:25;;;;;;;15.88;12.05;;;;;;;15.25;100.00;100569.22;5547788;32;34635;-68
2023/05/26 03:15:39;;;;;;;20.05;13.13;;;;;;;15.29;100.00;100572.37;5547703;32;34340;-69
2023/05/26 03:18:48;;;;;;;21.87;12.57;;;;;;;15.26;100.00;100580.75;5546819;32;33992;-68
2023/05/26 03:21:55;;;;;;;17.87;12.52;;;;;;;15.24;100.00;100575.63;5547678;32;34642;-70
2023/05/26 03:25:23;;;;;;;18.05;12.57;;;;;;;15.21;100.00;100584.84;5547486;32;34158;-69
2023/05/26 03:28:32;;;;;;;17.80;12.80;;;;;;;15.17;100.00;100585.41;5547495;32;34604;-69
2023/05/26 03:31:41;;;;;;;16.98;12.55;;;;;;;15.14;100.00;100591.16;5545917;32;34208;-70
2023/05/26 03:34:48;;;;;;;17.60;12.25;;;;;;;15.17;100.00;100588.91;5541053;32;34026;-68
2023/05/26 03:37:56;;;;;;;17.83;12.68;;;;;;;15.16;100.00;100589.94;5546474;32;34178;-68
2023/05/26 03:41:02;;;;;;;15.75;11.90;;;;;;;15.21;100.00;100600.03;5547299;32;33985;-68
2023/05/26 03:44:08;;;;;;;19.30;12.40;;;;;;;15.22;100.00;100599.03;5547298;32;34105;-68
2023/05/26 03:47:15;;;;;;;18.37;12.43;;;;;;;15.30;100.00;100592.75;5547282;32;34159;-69
2023/05/26 03:50:22;;;;;;;19.62;12.95;;;;;;;15.33;100.00;100597.69;5547227;32;33792;-70
2023/05/26 03:53:32;;;;;;;19.37;12.02;;;;;;;15.36;100.00;100590.09;5547051;32;34015;-69
2023/05/26 03:56:40;;;;;;;18.23;12.65;;;;;;;15.42;100.00;100593.84;5546115;32;34592;-69
2023/05/26 03:59:48;;;;;;;15.65;12.25;;;;;;;15.49;100.00;100598.22;5546903;32;34183;-69
2023/05/26 04:02:56;;;;;;;17.77;12.30;;;;;;;15.47;100.00;100588.75;5546212;32;34543;-71
2023/05/26 04:06:02;;;;;;;15.93;12.02;;;;;;;15.48;100.00;100595.75;5547164;32;34676;-71
2023/05/26 04:09:10;;;;;;;15.48;12.07;;;;;;;15.54;100.00;100590.47;5546885;32;34780;-69
2023/05/26 04:12:16;;;;;;;18.40;12.55;;;;;;;15.58;100.00;100596.28;5546775;32;34658;-70
2023/05/26 04:15:21;;;;;;;19.67;12.13;;;;;;;15.68;100.00;100602.09;5538682;32;34090;-70
2023/05/26 04:18:29;;;;;;;16.77;11.80;;;;;;;15.79;100.00;100601.53;5541359;32;34266;-69
2023/05/26 04:21:36;;;;;;;16.55;11.88;;;;;;;15.80;100.00;100599.69;5549151;32;34018;-69
2023/05/26 04:24:43;;;;;;;19.00;12.30;;;;;;;15.81;100.00;100599.50;5549054;32;34034;-69
2023/05/26 04:27:49;;;;;;;18.05;12.90;;;;;;;15.90;100.00;100609.03;5548163;32;34753;-69
2023/05/26 04:30:56;;;;;;;17.33;12.18;;;;;;;15.92;100.00;100609.66;5548939;32;34041;-68
2023/05/26 04:34:02;;;;;;;17.95;12.20;;;;;;;16.00;100.00;100616.69;5549026;32;33962;-69
2023/05/26 04:37:09;;;;;;;20.30;11.95;;;;;;;16.12;100.00;100617.78;5548916;32;34037;-69
2023/05/26 04:40:16;;;;;;;18.87;12.73;;;;;;;16.22;100.00;100622.78;5549020;32;34047;-69
2023/05/26 04:43:23;;;;;;;17.25;11.63;;;;;;;16.17;100.00;100615.34;5547933;32;34265;-69
2023/05/26 04:46:28;;;;;;;18.92;12.25;;;;;;;16.26;100.00;100611.50;5549157;32;34538;-69
2023/05/26 04:49:35;;;;;;;21.60;12.63;;;;;;;16.25;100.00;100617.88;5548898;32;34673;-69
2023/05/26 04:52:41;;;;;;;20.62;12.27;;;;;;;16.38;100.00;100623.28;5548887;32;33852;-67
2023/05/26 04:55:47;;;;;;;20.08;13.73;;;;;;;16.51;100.00;100614.47;5548277;32;34099;-69
2023/05/26 04:58:51;;;;;;;21.90;12.88;;;;;;;16.57;100.00;100615.50;5544261;32;33937;-68
2023/05/26 05:01:55;;;;;;;19.77;12.75;;;;;;;16.70;100.00;100615.63;5546116;32;34009;-68
2023/05/26 05:05:00;;;;;;;18.37;12.25;;;;;;;16.82;100.00;100620.16;5541721;32;33995;-69
2023/05/26 05:08:05;;;;;;;18.40;11.70;;;;;;;16.85;100.00;100626.97;5548207;32;34098;-70
2023/05/26 05:11:08;;;;;;;18.62;11.60;;;;;;;16.99;100.00;100622.47;5548375;32;34042;-70
2023/05/26 05:14:13;;;;;;;22.75;13.73;;;;;;;17.23;100.00;100628.06;5548550;32;34062;-70
2023/05/26 05:17:18;;;;;;;22.35;11.23;;;;;;;17.21;100.00;100626.63;5533207;32;34252;-70
2023/05/26 05:20:24;;;;;;;17.60;11.57;;;;;;;17.36;100.00;100630.75;5534937;32;34677;-70
2023/05/26 05:23:30;;;;;;;17.92;10.95;;;;;;;17.49;100.00;100621.88;5533019;32;33868;-70
2023/05/26 05:26:37;;;;;;;19.90;10.83;;;;;;;17.49;100.00;100629.09;5528980;32;33805;-70
2023/05/26 05:29:43;;;;;;;15.20;10.93;;;;;;;17.32;100.00;100629.53;5528121;32;34226;-71
2023/05/26 05:32:47;;;;;;;19.95;10.15;;;;;;;17.50;100.00;100630.75;5535389;32;34039;-70
2023/05/26 05:35:52;;;;;;;17.62;9.77;;;;;;;17.66;100.00;100635.75;5528823;32;34203;-71
2023/05/26 05:38:57;;;;;;;14.70;10.55;;;;;;;17.55;100.00;100634.47;5533230;32;34227;-70
2023/05/26 05:42:01;;;;;;;18.40;10.80;;;;;;;17.86;100.00;100639.25;5530087;32;35120;-70
2023/05/26 05:45:06;;;;;;;16.87;9.70;;;;;;;18.04;100.00;100643.94;5533679;32;34131;-70
2023/05/26 05:48:11;;;;;;;20.35;9.77;;;;;;;18.03;100.00;100640.44;5545684;32;34125;-70
2023/05/26 05:51:18;;;;;;;15.43;9.38;;;;;;;18.05;100.00;100630.31;5533419;32;34815;-70
2023/05/26 05:54:22;;;;;;;15.93;9.52;;;;;;;18.30;100.00;100640.37;5541932;32;34802;-70
2023/05/26 05:57:26;;;;;;;13.60;9.15;;;;;;;18.39;100.00;100639.94;5546550;32;33918;-71
2023/05/26 06:00:29;;;;;;;12.88;9.15;;;;;;;18.58;100.00;100647.13;5544149;32;34099;-70
2023/05/26 06:03:33;;;;;;;16.90;9.55;;;;;;;18.69;100.00;100648.28;5540994;32;33610;-72
2023/05/26 06:06:38;;;;;;;15.30;9.15;;;;;;;18.70;100.00;100658.00;5547767;32;34107;-71
2023/05/26 06:09:43;;;;;;;13.30;9.45;;;;;;;18.72;100.00;100655.09;5547863;32;34042;-70
2023/05/26 06:12:47;;;;;;;17.15;9.00;;;;;;;18.85;100.00;100655.88;5562203;32;33945;-71
2023/05/26 06:15:51;;;;;;;16.98;9.20;;;;;;;18.97;100.00;100664.91;5567281;32;35347;-71
2023/05/26 06:18:54;;;;;;;21.98;8.52;;;;;;;19.13;100.00;100666.25;5567218;32;34771;-71
2023/05/26 06:21:58;;;;;;;13.68;8.93;;;;;;;19.35;100.00;100655.97;5567529;32;34212;-71
2023/05/26 06:25:03;;;;;;;16.05;8.10;;;;;;;19.37;100.00;100654.69;5567108;32;33934;-71
2023/05/26 06:28:07;;;;;;;12.05;8.27;;;;;;;19.55;100.00;100662.06;5553156;32;34116;-70
2023/05/26 06:31:12;;;;;;;13.98;8.15;;;;;;;19.62;100.00;100660.13;5566640;32;34700;-71
2023/05/26 06:34:18;;;;;;;12.60;7.68;;;;;;;19.58;100.00;100658.09;5566543;32;34732;-72
2023/05/26 06:37:23;;;;;;;12.95;7.47;;;;;;;19.83;100.00;100669.69;5549361;32;33841;-71
2023/05/26 06:40:28;;;;;;;12.32;7.22;;;;;;;19.86;100.00;100663.84;5527284;32;34209;-70
2023/05/26 06:43:32;;;;;;;11.95;7.72;;;;;;;20.09;100.00;100663.22;5530313;32;34089;-70
2023/05/26 06:46:38;;;;;;;16.17;7.70;;;;;;;20.32;100.00;100668.81;5532688;32;34100;-70
2023/05/26 06:49:42;;;;;;;15.45;7.93;;;;;;;20.57;100.00;100669.56;5530736;32;33047;-70
2023/05/26 06:52:49;;;;;;;12.52;8.95;;;;;;;20.63;100.00;100676.72;5533728;32;34166;-70
2023/05/26 06:55:53;;;;;;;13.27;8.85;;;;;;;20.70;100.00;100677.47;5541393;32;34846;-71
2023/05/26 06:58:57;;;;;;;15.43;8.25;;;;;;;21.01;100.00;100676.41;5546689;32;34800;-70
2023/05/26 07:02:02;;;;;;;12.93;8.13;;;;;;;21.21;100.00;100678.88;5543795;32;34003;-71
2023/05/26 07:05:08;;;;;;;11.15;7.57;;;;;;;21.23;100.00;100674.06;5544783;32;34540;-71
2023/05/26 07:08:13;;;;;;;10.10;7.30;;;;;;;21.55;100.00;100675.44;5544083;32;34954;-71
2023/05/26 07:11:18;;;;;;;12.18;6.78;;;;;;;21.82;100.00;100677.69;5527906;32;34558;-71
2023/05/26 07:14:24;;;;;;;15.70;6.95;;;;;;;22.20;100.00;100671.84;5531273;32;34509;-70
2023/05/26 07:17:28;;;;;;;13.10;6.82;;;;;;;22.19;100.00;100681.00;5531452;32;34429;-70
2023/05/26 07:20:33;;;;;;;13.62;6.60;;;;;;;22.46;98.18;100676.75;5527523;32;34308;-70
2023/05/26 07:23:37;;;;;;;9.98;6.57;;;;;;;22.44;99.51;100674.28;5540845;32;34661;-70
2023/05/26 07:26:43;;;;;;;15.57;7.07;;;;;;;22.85;93.74;100677.84;5547394;32;34159;-69
2023/05/26 07:29:49;;;;;;;8.95;5.87;;;;;;;23.57;79.60;100683.50;5538854;32;32793;-72
2023/05/26 07:32:53;;;;;;;9.45;6.07;;;;;;;24.05;78.66;100678.31;5540011;32;35943;-72
2023/05/26 07:35:57;;;;;;;16.35;6.40;;;;;;;24.94;71.63;100684.37;5546163;32;33978;-71
2023/05/26 07:39:02;;;;;;;12.68;6.50;;;;;;;24.54;70.98;100681.16;5546347;32;34947;-72
2023/05/26 07:42:06;;;;;;;12.20;6.00;;;;;;;24.95;65.87;100682.47;5545792;32;34048;-69
2023/05/26 07:45:10;;;;;;;13.93;5.60;;;;;;;25.62;62.89;100690.19;5527883;32;34202;-72
2023/05/26 07:48:16;;;;;;;10.43;6.03;;;;;;;25.36;62.93;100687.25;5531085;32;34153;-70
2023/05/26 07:51:23;;;;;;;11.43;6.00;;;;;;;25.68;61.28;100683.75;5540222;32;34613;-73
2023/05/26 07:54:27;;;;;;;9.80;5.68;;;;;;;26.50;58.24;100673.12;5539414;32;33928;-73
2023/05/26 07:57:33;;;;;;;9.95;5.55;;;;;;;26.77;57.67;100687.38;5532992;32;33912;-71
2023/05/26 08:00:38;;;;;;;17.75;6.07;;;;;;;26.02;56.73;100678.81;5528904;32;34657;-70
2023/05/26 08:03:42;;;;;;;10.20;5.65;;;;;;;26.88;56.12;100677.37;5536685;32;34092;-69
2023/05/26 08:06:45;;;;;;;12.37;5.80;;;;;;;27.06;53.27;100681.53;5540354;32;33829;-70
2023/05/26 08:09:52;;;;;;;12.43;5.72;;;;;;;25.97;54.68;100687.75;5537332;32;34132;-69
2023/05/26 08:12:55;;;;;;;9.68;5.40;;;;;;;26.38;55.04;100684.22;5525861;32;34824;-69
2023/05/26 08:15:59;;;;;;;11.27;6.03;;;;;;;25.55;55.61;100689.62;5526192;32;34046;-71
2023/05/26 08:19:02;;;;;;;13.50;6.32;;;;;;;26.36;54.62;100693.72;5529195;32;34800;-69
2023/05/26 08:22:06;;;;;;;11.95;5.62;;;;;;;27.15;51.81;100679.91;5543496;32;34918;-68
2023/05/26 08:25:09;;;;;;;16.33;5.55;;;;;;;28.06;48.84;100688.91;5534752;32;34130;-69
2023/05/26 08:28:14;;;;;;;19.62;6.40;;;;;;;29.08;46.27;100692.09;5532833;32;34014;-69
2023/05/26 08:31:18;;;;;;;15.35;5.43;;;;;;;29.65;44.97;100693.34;5533360;32;33874;-69
2023/05/26 08:34:23;;;;;;;11.23;5.22;;;;;;;30.09;43.08;100690.50;5544013;32;34187;-70
2023/05/26 08:37:28;;;;;;;11.82;5.60;;;;;;;29.30;43.62;100681.59;5526136;32;34277;-68
2023/05/26 08:40:33;;;;;;;17.50;5.70;;;;;;;28.46;46.17;100681.75;5526182;32;34133;-72
2023/05/26 08:43:50;;;;;;;13.48;5.95;;;;;;;31.13;40.84;100690.63;5541926;32;35464;-69
2023/05/26 08:47:11;;;;;;;13.65;6.22;;;;;;;29.26;43.29;100680.50;5525530;32;33996;-69
2023/05/26 08:50:16;;;;;;;27.70;6.25;;;;;;;29.34;42.93;100693.59;5533237;32;34252;-70
2023/05/26 08:53:23;;;;;;;8.95;5.57;;;;;;;28.62;46.58;100682.47;5537827;32;34786;-71
2023/05/26 08:56:28;;;;;;;12.90;5.90;;;;;;;29.44;42.59;100691.88;5543262;32;33816;-70
2023/05/26 08:59:32;;;;;;;7.32;5.37;;;;;;;29.69;41.87;100688.94;5525969;32;34577;-70
2023/05/26 09:02:36;;;;;;;10.48;6.18;;;;;;;29.53;41.75;100680.03;5545024;32;34625;-70
2023/05/26 09:05:41;;;;;;;15.13;6.05;;;;;;;31.04;39.90;100680.31;5534921;32;34065;-70
2023/05/26 09:08:44;;;;;;;18.85;7.00;;;;;;;29.31;42.10;100674.22;5533746;32;34186;-71
2023/05/26 09:11:47;;;;;;;20.33;6.12;;;;;;;30.00;42.43;100678.56;5532216;32;34783;-71
2023/05/26 09:14:59;;;;;;;32.25;6.18;;;;;;;31.39;39.16;100667.19;5546193;32;34189;-69
2023/05/26 09:18:07;;;;;;;7.37;5.93;;;;;;;29.99;42.53;100666.81;5540015;32;34078;-71
2023/05/26 09:21:12;;;;;;;11.27;6.12;;;;;;;30.08;40.57;100676.00;5518278;32;34661;-71
2023/05/26 09:24:22;;;;;;;9.98;5.60;;;;;;;29.21;42.61;100676.97;5531711;32;34791;-74
2023/05/26 09:27:26;;;;;;;17.58;5.75;;;;;;;30.00;40.79;100671.19;5528593;32;34165;-70
2023/05/26 09:30:36;;;;;;;11.27;5.60;;;;;;;30.00;41.01;100673.09;5544383;32;33947;-70
2023/05/26 09:33:45;;;;;;;11.40;5.57;;;;;;;29.63;40.28;100663.56;5543165;32;34858;-70
2023/05/26 09:36:51;;;;;;;19.50;5.75;;;;;;;29.83;39.74;100670.75;5547137;32;34209;-71
2023/05/26 09:40:10;;;;;;;8.82;5.57;;;;;;;29.82;39.90;100673.78;5548689;32;35274;-72
2023/05/26 09:43:20;;;;;;;21.45;6.62;;;;;;;29.36;40.56;100661.31;5552042;32;34097;-69
2023/05/26 09:46:24;;;;;;;16.25;6.12;;;;;;;27.98;42.76;100664.13;5548705;32;34128;-68
2023/05/26 09:49:31;;;;;;;19.27;6.40;;;;;;;28.08;43.53;100655.88;5552738;32;33952;-69
2023/05/26 09:52:36;;;;;;;11.30;5.43;;;;;;;28.95;42.22;100663.47;5542069;32;34208;-71
2023/05/26 09:55:40;;;;;;;12.23;6.00;;;;;;;29.28;41.63;100666.56;5528846;32;34093;-69
2023/05/26 09:58:46;;;;;;;85.78;13.55;;;;;;;28.00;43.59;100657.28;5535371;32;35681;-69
2023/05/26 10:01:52;;;;;;;25.33;6.93;;;;;;;28.98;40.50;100661.28;5527841;32;33707;-68
2023/05/26 10:04:58;;;;;;;15.05;5.93;;;;;;;29.30;40.84;100657.00;5528620;32;34040;-69
2023/05/26 10:08:05;;;;;;;9.18;5.20;;;;;;;28.29;41.63;100653.94;5530204;32;33863;-70
2023/05/26 10:11:08;;;;;;;10.02;5.68;;;;;;;28.99;40.65;100657.47;5529549;32;34721;-72
2023/05/26 10:14:12;;;;;;;13.55;5.60;;;;;;;27.81;42.71;100645.31;5527465;32;34758;-70
2023/05/26 10:17:16;;;;;;;7.95;5.90;;;;;;;29.67;40.96;100645.50;5536779;32;34296;-72
2023/05/26 10:20:22;;;;;;;11.43;5.75;;;;;;;28.83;40.87;100641.19;5541948;32;34492;-69
2023/05/26 10:23:36;;;;;;;9.70;5.50;;;;;;;28.34;42.01;100648.47;5527302;32;34488;-70
2023/05/26 10:26:43;;;;;;;12.32;6.03;;;;;;;28.61;42.28;100648.09;5528307;32;34091;-71
2023/05/26 10:29:57;;;;;;;12.07;6.07;;;;;;;27.47;44.75;100638.78;5528629;32;34766;-70
2023/05/26 10:33:09;;;;;;;10.32;5.70;;;;;;;28.49;42.45;100638.31;5533622;32;35172;-70
2023/05/26 10:36:17;;;;;;;5.75;4.68;;;;;;;29.10;40.25;100648.91;5527941;32;34310;-70
2023/05/26 10:39:21;;;;;;;11.48;5.55;;;;;;;30.19;38.94;100643.87;5527662;32;34976;-70
2023/05/26 10:42:25;;;;;;;10.63;5.45;;;;;;;31.72;36.71;100643.31;5527945;32;34532;-69
2023/05/26 10:45:32;;;;;;;14.23;5.50;;;;;;;32.34;34.16;100637.19;5527911;32;35011;-70
2023/05/26 10:48:54;;;;;;;8.85;4.60;;;;;;;33.99;31.79;100632.72;5528565;32;34842;-72
2023/05/26 10:52:14;;;;;;;7.45;4.20;;;;;;;33.82;31.88;100640.91;5526897;32;33963;-72
2023/05/26 10:55:51;;;;;;;8.45;4.25;;;;;;;33.56;29.49;100646.25;5527294;32;34104;-70
2023/05/26 10:58:58;;;;;;;9.68;4.53;;;;;;;35.21;27.99;100631.88;5528243;32;34893;-70
2023/05/26 11:02:05;;;;;;;5.60;3.97;;;;;;;33.89;29.73;100627.50;5541685;32;33904;-69
2023/05/26 11:05:32;;;;;;;11.20;4.55;;;;;;;36.01;26.72;100624.72;5546338;32;34780;-71
2023/05/26 11:08:40;;;;;;;8.13;5.50;;;;;;;36.16;26.29;100624.97;5527942;32;34486;-69
2023/05/26 11:11:54;;;;;;;10.18;3.80;;;;;;;33.64;29.58;100619.91;5528103;32;33993;-69
2023/05/26 11:15:30;;;;;;;7.82;4.30;;;;;;;35.43;28.41;100617.91;5527741;32;33843;-69
2023/05/26 11:18:33;;;;;;;8.68;4.18;;;;;;;33.35;29.51;100619.56;5534477;32;34177;-69
2023/05/26 11:21:40;;;;;;;5.95;4.30;;;;;;;35.06;28.08;100613.03;5541487;32;33980;-69
2023/05/26 11:24:47;;;;;;;7.93;5.28;;;;;;;35.17;28.63;100608.84;5529836;32;34078;-69
2023/05/26 11:27:52;;;;;;;16.62;4.65;;;;;;;33.55;29.86;100606.09;5526911;32;34157;-70
2023/05/26 11:30:57;;;;;;;6.93;4.53;;;;;;;35.74;27.26;100612.94;5527729;32;34184;-68
2023/05/26 11:34:01;;;;;;;18.80;4.70;;;;;;;32.97;30.43;100608.91;5527492;32;34133;-69
2023/05/26 11:37:07;;;;;;;8.80;4.40;;;;;;;32.83;30.56;100602.66;5527846;32;34167;-67
2023/05/26 11:40:12;;;;;;;6.07;4.37;;;;;;;31.71;32.55;100595.09;5527681;32;34063;-68
2023/05/26 11:43:15;;;;;;;7.20;4.12;;;;;;;32.72;29.73;100599.34;5527955;32;34352;-68
2023/05/26 11:46:18;;;;;;;5.28;4.35;;;;;;;32.81;29.93;100596.66;5527760;32;33681;-70
2023/05/26 11:49:21;;;;;;;7.15;4.50;;;;;;;32.38;30.50;100593.47;5527586;32;34775;-70
2023/05/26 11:52:25;;;;;;;9.48;4.78;;;;;;;33.88;29.69;100581.03;5527626;32;34316;-69
2023/05/26 11:55:28;;;;;;;5.72;4.45;;;;;;;34.01;30.11;100575.41;5533577;32;33882;-68
2023/05/26 11:58:35;;;;;;;10.30;4.82;;;;;;;35.73;27.90;100583.72;5535809;32;34122;-69
2023/05/26 12:01:38;;;;;;;10.95;4.93;;;;;;;33.93;31.17;100567.94;5535950;32;34264;-68
2023/05/26 12:04:42;;;;;;;7.20;4.10;;;;;;;36.93;26.03;100570.31;5533238;32;33993;-70
2023/05/26 12:08:01;;;;;;;13.77;3.87;;;;;;;36.24;24.66;100568.06;5539351;32;35176;-69
2023/05/26 12:11:12;;;;;;;5.72;3.67;;;;;;;37.29;24.14;100558.56;5533681;32;34171;-71
2023/05/26 12:14:16;;;;;;;6.85;3.78;;;;;;;36.46;23.85;100551.16;5539379;32;32965;-70
2023/05/26 12:17:23;;;;;;;5.15;3.42;;;;;;;37.85;23.16;100546.69;5527004;32;34172;-69
2023/05/26 12:20:28;;;;;;;6.80;4.37;;;;;;;40.85;19.66;100551.53;5527068;32;34187;-70
2023/05/26 12:23:47;;;;;;;6.53;4.10;;;;;;;39.50;22.17;100546.44;5531089;32;34621;-70
2023/05/26 12:26:51;;;;;;;6.57;3.62;;;;;;;39.55;21.86;100542.59;5532111;32;34615;-69
2023/05/26 12:29:55;;;;;;;6.05;4.00;;;;;;;38.79;22.67;100531.72;5526757;32;34738;-69
2023/05/26 12:33:00;;;;;;;6.68;3.40;;;;;;;37.54;23.10;100529.00;5526847;32;34875;-70
2023/05/26 12:36:05;;;;;;;7.82;4.18;;;;;;;36.56;23.42;100519.53;5528738;32;33845;-70
2023/05/26 12:39:10;;;;;;;6.50;3.83;;;;;;;36.82;23.83;100525.69;5529547;32;34235;-69
2023/05/26 12:42:16;;;;;;;8.65;4.22;;;;;;;37.54;23.19;100512.41;5529738;32;35108;-69
2023/05/26 12:45:20;;;;;;;8.88;4.20;;;;;;;36.50;25.44;100512.63;5539509;32;34107;-70
2023/05/26 12:48:24;;;;;;;8.52;4.00;;;;;;;39.13;23.10;100511.69;5539599;32;34073;-68
2023/05/26 12:51:31;;;;;;;8.63;4.40;;;;;;;38.54;23.11;100509.66;5535394;32;35013;-69
2023/05/26 12:54:35;;;;;;;9.37;4.57;;;;;;;37.51;24.97;100502.81;5536301;32;34176;-70
2023/05/26 12:57:41;;;;;;;14.35;5.50;;;;;;;36.20;26.98;100498.06;5546933;32;33423;-69
2023/05/26 13:00:45;;;;;;;9.50;4.90;;;;;;;35.52;28.73;100494.50;5534661;32;33953;-70
2023/05/26 13:03:50;;;;;;;9.20;4.97;;;;;;;38.53;26.09;100494.19;5532132;32;34043;-69
2023/05/26 13:06:57;;;;;;;11.12;4.62;;;;;;;37.57;26.77;100497.91;5537464;32;34177;-70
2023/05/26 13:10:06;;;;;;;6.50;5.03;;;;;;;37.15;27.37;100488.91;5533879;32;33848;-69
2023/05/26 13:13:13;;;;;;;9.32;4.57;;;;;;;37.96;25.88;100486.06;5534161;32;34494;-70
2023/05/26 13:16:16;;;;;;;11.60;4.93;;;;;;;37.62;27.02;100487.38;5536204;32;34316;-69
2023/05/26 13:19:28;;;;;;;9.48;5.03;;;;;;;34.77;30.46;100475.88;5523881;32;33801;-70
2023/05/26 13:22:35;;;;;;;7.97;4.75;;;;;;;34.48;30.37;100471.00;5538543;32;34774;-68
2023/05/26 13:25:42;;;;;;;7.93;5.22;;;;;;;35.01;29.63;100473.38;5535026;32;34047;-68
2023/05/26 13:28:48;;;;;;;8.60;4.53;;;;;;;33.82;31.52;100474.97;5541879;32;35505;-69
2023/05/26 13:31:55;;;;;;;15.52;5.53;;;;;;;36.18;30.03;100469.94;5531752;32;34072;-70
2023/05/26 13:34:59;;;;;;;8.00;5.00;;;;;;;38.91;26.43;100479.03;5530787;32;34699;-70
2023/05/26 13:38:06;;;;;;;11.07;5.28;;;;;;;36.56;29.31;100470.59;5531967;32;34204;-69
2023/05/26 13:41:12;;;;;;;10.10;5.22;;;;;;;34.91;31.10;100467.44;5548205;32;34083;-69
2023/05/26 13:44:16;;;;;;;9.48;5.60;;;;;;;31.73;35.64;100470.22;5534222;32;34166;-68
2023/05/26 13:47:20;;;;;;;8.50;4.90;;;;;;;33.47;34.02;100465.75;5547527;32;33768;-70
2023/05/26 13:50:26;;;;;;;7.95;4.97;;;;;;;36.22;29.75;100462.59;5547037;32;34148;-68
2023/05/26 13:53:33;;;;;;;13.05;5.85;;;;;;;32.44;35.32;100460.41;5537610;32;34238;-70
2023/05/26 13:56:38;;;;;;;13.20;5.80;;;;;;;31.47;37.13;100458.91;5529114;32;34710;-68
2023/05/26 13:59:43;;;;;;;8.35;5.30;;;;;;;28.83;42.11;100460.13;5533102;32;34040;-70
2023/05/26 14:02:49;;;;;;;7.80;5.90;;;;;;;28.97;40.80;100454.81;5528091;32;33925;-69
2023/05/26 14:05:54;;;;;;;11.98;5.75;;;;;;;31.84;37.11;100455.16;5527827;32;34623;-68
2023/05/26 14:08:59;;;;;;;13.45;5.72;;;;;;;34.47;33.38;100450.91;5528236;32;33850;-67
2023/05/26 14:12:04;;;;;;;12.35;5.85;;;;;;;37.67;29.37;100459.44;5532358;32;34294;-68
2023/05/26 14:15:09;;;;;;;10.60;5.43;;;;;;;32.77;34.85;100450.81;5537137;32;34158;-68